createdAt,value
2019-04-14T00:00:42.650Z,97897.64
2019-04-14T00:03:13.029Z,97898.93
2019-04-14T00:05:42.956Z,97890.63
2019-04-14T00:08:19.795Z,97895.78
2019-04-14T00:10:48.693Z,97888.61
2019-04-14T00:13:17.521Z,97884.21
2019-04-14T00:15:49.081Z,97886.76
2019-04-14T00:18:18.595Z,97887.63
2019-04-14T00:20:47.404Z,97883.73
2019-04-14T00:23:19.491Z,97873.59
2019-04-14T00:25:48.222Z,97870.89
2019-04-14T00:28:16.939Z,97870.42
2019-04-14T00:30:46.913Z,97868.77
2019-04-14T00:33:17.283Z,97873.44
2019-04-14T00:36:00.214Z,97866.05
2019-04-14T00:38:34.478Z,97866.85
2019-04-14T00:41:05.171Z,97862.17
2019-04-14T00:43:35.584Z,97862.36
2019-04-14T00:46:09.965Z,97866.14
2019-04-14T00:48:38.783Z,97860.11
2019-04-14T00:51:07.482Z,97858.73
2019-04-14T00:53:38.193Z,97856.63
2019-04-14T00:56:08.267Z,97855.62
2019-04-14T00:58:37.123Z,97854.52
2019-04-14T01:01:06.947Z,97852.70
2019-04-14T01:03:35.809Z,97853.56
2019-04-14T01:06:05.441Z,97854.84
2019-04-14T01:08:34.204Z,97855.62
2019-04-14T01:11:03.127Z,97857.27
2019-04-14T01:13:31.841Z,97859.76
2019-04-14T01:16:09.811Z,97858.60
2019-04-14T01:18:31.944Z,97854.19
2019-04-14T01:21:00.784Z,97855.60
2019-04-14T01:23:36.931Z,97852.16
2019-04-14T01:26:07.102Z,97853.34
2019-04-14T01:28:35.902Z,97846.80
2019-04-14T01:31:05.539Z,97851.61
2019-04-14T01:33:34.401Z,97852.81
2019-04-14T01:36:03.956Z,97854.50
2019-04-14T01:38:32.724Z,97859.89
2019-04-14T01:41:02.128Z,97850.82
2019-04-14T01:43:32.021Z,97856.92
2019-04-14T01:46:10.521Z,97855.05
2019-04-14T01:48:32.418Z,97855.11
2019-04-14T01:51:02.826Z,97849.92
2019-04-14T01:53:33.608Z,97850.86
2019-04-14T01:56:03.960Z,97854.02
2019-04-14T01:58:34.241Z,97852.83
2019-04-14T02:01:19.566Z,97850.19
2019-04-14T02:03:48.367Z,97851.11
2019-04-14T02:06:20.075Z,97849.25
2019-04-14T02:08:50.127Z,97853.20
2019-04-14T02:11:24.701Z,97850.60
2019-04-14T02:13:53.568Z,97853.27
2019-04-14T02:16:32.314Z,97848.05
2019-04-14T02:18:54.069Z,97851.56
2019-04-14T02:21:23.776Z,97841.75
2019-04-14T02:23:53.901Z,97844.64
2019-04-14T02:26:23.997Z,97843.91
2019-04-14T02:28:52.925Z,97844.37
2019-04-14T02:31:45.383Z,97846.92
2019-04-14T02:34:25.972Z,97847.75
2019-04-14T02:36:57.099Z,97846.14
2019-04-14T02:39:25.859Z,97846.28
2019-04-14T02:41:57.008Z,97837.62
2019-04-14T02:44:23.999Z,97840.53
2019-04-14T02:49:19.428Z,97835.38
2019-04-14T02:51:48.164Z,97838.84
2019-04-14T02:54:22.797Z,97842.59
2019-04-14T02:56:52.830Z,97828.94
2019-04-14T02:59:19.697Z,97828.58
2019-04-14T03:02:12.230Z,97831.63
2019-04-14T03:06:56.458Z,97836.22
2019-04-14T03:09:38.845Z,97837.74
2019-04-14T03:11:51.633Z,97840.55
2019-04-14T03:17:21.756Z,97838.09
2019-04-14T03:21:09.214Z,97841.56
2019-04-14T03:22:49.917Z,97841.61
2019-04-14T03:25:17.117Z,97846.59
2019-04-14T03:27:59.170Z,97849.66
2019-04-14T03:36:05.868Z,97849.34
2019-04-14T03:43:09.894Z,97851.83
2019-04-14T03:46:04.756Z,97847.03
2019-04-14T03:50:48.562Z,97850.98
2019-04-14T03:53:48.729Z,97847.91
2019-04-14T03:55:55.760Z,97859.49
2019-04-14T03:58:20.534Z,97863.44
2019-04-14T04:00:49.446Z,97861.20
2019-04-14T04:03:23.970Z,97870.25
2019-04-14T04:05:52.686Z,97874.30
2019-04-14T04:08:22.375Z,97874.30
2019-04-14T04:10:53.245Z,97879.53
2019-04-14T04:13:23.650Z,97882.95
2019-04-14T04:15:52.544Z,97881.36
2019-04-14T04:18:28.883Z,97884.31
2019-04-14T04:20:59.124Z,97876.50
2019-04-14T04:23:29.390Z,97884.02
2019-04-14T04:26:19.404Z,97875.78
2019-04-14T04:29:09.127Z,97879.81
2019-04-14T04:31:43.857Z,97883.41
2019-04-14T04:34:16.235Z,97886.47
2019-04-14T04:36:59.582Z,97890.44
2019-04-14T04:39:41.788Z,97889.83
2019-04-14T04:42:11.238Z,97899.08
2019-04-14T04:44:40.103Z,97906.83
2019-04-14T04:47:09.871Z,97908.14
2019-04-14T04:49:38.804Z,97900.58
2019-04-14T04:52:11.113Z,97902.95
2019-04-14T04:54:38.484Z,97904.20
2019-04-14T04:57:07.267Z,97908.09
2019-04-14T04:59:36.732Z,97916.10
2019-04-14T05:02:07.005Z,97912.05
2019-04-14T05:04:35.743Z,97923.06
2019-04-14T05:07:05.538Z,97918.40
2019-04-14T05:09:39.097Z,97917.06
2019-04-14T05:12:41.301Z,97916.09
2019-04-14T05:15:24.779Z,97917.23
2019-04-14T05:17:55.956Z,97912.64
2019-04-14T05:20:24.926Z,97921.20
2019-04-14T05:22:54.951Z,97914.20
2019-04-14T05:25:23.791Z,97919.25
2019-04-14T05:27:53.712Z,97922.94
2019-04-14T05:30:22.596Z,97918.19
2019-04-14T05:32:52.214Z,97922.02
2019-04-14T05:35:23.454Z,97928.07
2019-04-14T05:37:52.978Z,97924.78
2019-04-14T05:40:21.882Z,97926.80
2019-04-14T05:42:51.620Z,97928.56
2019-04-14T05:45:20.438Z,97925.16
2019-04-14T05:47:50.154Z,97930.54
2019-04-14T05:50:20.209Z,97932.38
2019-04-14T05:52:49.351Z,97938.33
2019-04-14T05:55:22.036Z,97940.22
2019-04-14T05:57:50.793Z,97937.19
2019-04-14T06:00:21.549Z,97942.64
2019-04-14T06:02:50.655Z,97940.23
2019-04-14T06:05:19.532Z,97936.91
2019-04-14T06:07:48.247Z,97937.87
2019-04-14T06:10:16.961Z,97946.93
2019-04-14T06:12:45.705Z,97945.26
2019-04-14T06:15:24.719Z,97944.72
2019-04-14T06:17:53.465Z,97952.41
2019-04-14T06:20:22.189Z,97957.95
2019-04-14T06:22:50.901Z,97952.29
2019-04-14T06:25:19.616Z,97954.78
2019-04-14T06:27:48.324Z,97954.30
2019-04-14T06:30:22.105Z,97964.65
2019-04-14T06:32:51.367Z,97974.37
2019-04-14T06:35:30.891Z,97979.20
2019-04-14T06:38:01.188Z,97977.55
2019-04-14T06:40:34.595Z,97978.98
2019-04-14T06:43:03.320Z,97974.04
2019-04-14T06:45:32.031Z,97979.02
2019-04-14T06:48:00.781Z,97980.22
2019-04-14T06:50:29.505Z,97973.45
2019-04-14T06:52:58.217Z,97978.14
2019-04-14T06:55:26.925Z,97981.82
2019-04-14T06:57:58.806Z,97981.03
2019-04-14T07:00:27.571Z,97976.13
2019-04-14T07:02:56.278Z,97979.51
2019-04-14T07:05:24.986Z,97978.39
2019-04-14T07:07:57.190Z,97980.69
2019-04-14T07:10:24.145Z,97980.63
2019-04-14T07:12:52.895Z,97979.14
2019-04-14T07:15:21.611Z,97982.61
2019-04-14T07:17:50.324Z,97980.14
2019-04-14T07:20:19.043Z,97983.84
2019-04-14T07:22:47.771Z,97988.95
2019-04-14T07:25:18.885Z,97986.47
2019-04-14T07:27:47.601Z,97991.26
2019-04-14T07:30:18.886Z,97990.39
2019-04-14T07:32:54.952Z,97988.90
2019-04-14T07:35:25.242Z,97994.52
2019-04-14T07:37:55.519Z,97997.97
2019-04-14T07:40:31.775Z,97997.91
2019-04-14T07:43:04.954Z,97994.19
2019-04-14T07:45:47.304Z,97992.90
2019-04-14T07:48:20.381Z,97992.56
2019-04-14T07:50:53.830Z,97995.67
2019-04-14T07:53:27.062Z,97995.71
2019-04-14T07:55:57.337Z,97990.84
2019-04-14T07:58:33.499Z,97990.14
2019-04-14T08:01:03.780Z,97990.41
2019-04-14T08:03:37.011Z,97992.19
2019-04-14T08:06:05.757Z,97985.41
2019-04-14T08:08:34.464Z,97984.89
2019-04-14T08:11:03.173Z,97980.13
2019-04-14T08:13:31.933Z,97981.94
2019-04-14T08:16:00.637Z,97983.26
2019-04-14T08:18:29.343Z,97982.55
2019-04-14T08:20:58.098Z,97982.55
2019-04-14T08:23:26.813Z,97982.64
2019-04-14T08:25:55.522Z,97982.64
2019-04-14T08:28:24.241Z,97977.99
2019-04-14T08:30:52.955Z,97980.58
2019-04-14T08:33:21.723Z,97978.06
2019-04-14T08:35:50.439Z,97976.77
2019-04-14T08:38:19.155Z,97979.85
2019-04-14T08:40:47.876Z,97970.38
2019-04-14T08:43:34.601Z,97974.28
2019-04-14T08:46:04.969Z,97965.22
2019-04-14T08:48:53.359Z,97964.80
2019-04-14T08:51:32.482Z,97967.44
2019-04-14T08:54:02.762Z,97956.65
2019-04-14T08:56:38.821Z,97964.50
2019-04-14T08:59:09.098Z,97954.52
2019-04-14T09:01:39.377Z,97954.06
2019-04-14T09:04:21.877Z,97948.81
2019-04-14T09:06:58.071Z,97947.08
2019-04-14T09:09:28.378Z,97940.48
2019-04-14T09:11:58.641Z,97942.11
2019-04-14T09:14:27.351Z,97945.46
2019-04-14T09:16:56.057Z,97945.23
2019-04-14T09:19:24.815Z,97935.36
2019-04-14T09:21:53.528Z,97934.66
2019-04-14T09:24:22.246Z,97932.44
2019-04-14T09:26:50.998Z,97930.25
2019-04-14T09:29:19.706Z,97929.09
2019-04-14T09:31:48.406Z,97925.23
2019-04-14T09:34:19.219Z,97923.61
2019-04-14T09:36:47.925Z,97924.59
2019-04-14T09:39:16.628Z,97920.80
2019-04-14T09:41:45.377Z,97920.00
2019-04-14T09:44:14.086Z,97910.73
2019-04-14T09:46:42.843Z,97910.43
2019-04-14T09:49:19.220Z,97916.29
2019-04-14T09:51:47.924Z,97911.34
2019-04-14T09:54:19.142Z,97913.66
2019-04-14T09:56:47.853Z,97910.05
2019-04-14T09:59:16.561Z,97913.36
2019-04-14T10:01:45.313Z,97907.39
2019-04-14T10:04:14.021Z,97908.20
2019-04-14T10:06:42.729Z,97900.74
2019-04-14T10:09:19.146Z,97902.09
2019-04-14T10:11:51.174Z,97896.72
2019-04-14T10:14:19.176Z,97893.62
2019-04-14T10:16:47.889Z,97896.50
2019-04-14T10:19:22.990Z,97890.94
2019-04-14T10:21:51.705Z,97893.86
2019-04-14T10:24:20.413Z,97897.88
2019-04-14T10:26:49.136Z,97895.55
2019-04-14T10:29:19.178Z,97891.42
2019-04-14T10:31:47.889Z,97889.70
2019-04-14T10:34:16.598Z,97886.98
2019-04-14T10:36:45.340Z,97882.26
2019-04-14T10:39:14.043Z,97882.22
2019-04-14T10:41:42.752Z,97883.77
2019-04-14T10:46:49.111Z,97880.98
2019-04-14T10:49:17.823Z,97887.73
2019-04-14T10:51:46.546Z,97878.06
2019-04-14T10:54:15.264Z,97883.69
2019-04-14T10:56:44.025Z,97888.36
2019-04-14T10:59:19.183Z,97885.20
2019-04-14T11:01:47.879Z,97879.64
2019-04-14T11:04:18.481Z,97888.02
2019-04-14T11:06:48.852Z,97885.38
2019-04-14T11:09:21.572Z,97881.95
2019-04-14T11:11:50.288Z,97878.88
2019-04-14T11:14:18.995Z,97879.36
2019-04-14T11:16:47.755Z,97880.67
2019-04-14T11:19:22.754Z,97883.72
2019-04-14T11:21:51.479Z,97881.93
2019-04-14T11:24:23.983Z,97881.87
2019-04-14T11:26:51.807Z,97883.11
2019-04-14T11:29:20.516Z,97879.01
2019-04-14T11:31:56.904Z,97883.45
2019-04-14T11:34:39.109Z,97880.30
2019-04-14T11:37:26.070Z,97885.07
2019-04-14T11:39:54.792Z,97874.35
2019-04-14T11:42:23.485Z,97875.12
2019-04-14T11:44:52.250Z,97878.91
2019-04-14T11:47:20.937Z,97884.07
2019-04-14T11:49:49.689Z,97878.47
2019-04-14T11:52:18.388Z,97870.09
2019-04-14T11:54:47.109Z,97867.72
2019-04-14T12:00:11.204Z,97867.03
2019-04-14T12:02:57.762Z,97867.05
2019-04-14T12:05:28.036Z,97865.20
2019-04-14T12:07:58.369Z,97862.98
2019-04-14T12:10:27.105Z,97862.60
2019-04-14T12:12:55.813Z,97855.89
2019-04-14T12:15:24.522Z,97869.51
2019-04-14T12:17:53.281Z,97862.91
2019-04-14T12:20:21.989Z,97862.80
2019-04-14T12:22:50.699Z,97855.63
2019-04-14T12:25:19.407Z,97852.73
2019-04-14T12:27:48.869Z,97856.45
2019-04-14T12:30:20.178Z,97854.97
2019-04-14T12:32:49.014Z,97852.31
2019-04-14T12:35:17.726Z,97858.37
2019-04-14T12:37:46.433Z,97840.51
2019-04-14T12:40:15.613Z,97847.77
2019-04-14T12:43:02.418Z,97851.63
2019-04-14T12:45:32.693Z,97847.72
2019-04-14T12:48:09.020Z,97849.08
2019-04-14T12:50:39.298Z,97854.95
2019-04-14T12:53:08.005Z,97844.41
2019-04-14T12:55:36.733Z,97843.83
2019-04-14T12:58:11.356Z,97841.61
2019-04-14T13:00:56.843Z,97849.02
2019-04-14T13:03:25.847Z,97848.38
2019-04-14T13:05:54.590Z,97851.78
2019-04-14T13:08:23.295Z,97854.30
2019-04-14T13:10:52.030Z,97851.12
2019-04-14T13:13:20.782Z,97851.08
2019-04-14T13:15:49.495Z,97847.18
2019-04-14T13:18:18.200Z,97851.54
2019-04-14T13:20:46.918Z,97845.23
2019-04-14T13:23:15.622Z,97849.80
2019-04-14T13:25:44.377Z,97851.42
2019-04-14T13:28:19.983Z,97845.69
2019-04-14T13:30:50.092Z,97846.20
2019-04-14T13:33:19.320Z,97855.78
2019-04-14T13:35:48.019Z,97847.91
2019-04-14T13:38:16.738Z,97854.64
2019-04-14T13:40:45.448Z,97851.00
2019-04-14T13:43:14.159Z,97852.47
2019-04-14T13:45:42.859Z,97845.80
2019-04-14T13:48:19.306Z,97853.57
2019-04-14T13:50:48.010Z,97848.70
2019-04-14T13:53:19.436Z,97850.34
2019-04-14T13:55:48.141Z,97849.86
2019-04-14T13:58:16.841Z,97850.27
2019-04-14T14:00:45.755Z,97847.30
2019-04-14T14:03:14.461Z,97846.48
2019-04-14T14:05:43.807Z,97854.66
2019-04-14T14:08:19.377Z,97850.57
2019-04-14T14:10:48.195Z,97851.73
2019-04-14T14:13:22.032Z,97861.84
2019-04-14T14:16:08.611Z,97862.25
2019-04-14T14:18:38.933Z,97860.57
2019-04-14T14:21:16.000Z,97860.97
2019-04-14T14:24:02.790Z,97873.13
2019-04-14T14:26:35.810Z,97871.89
2019-04-14T14:29:04.642Z,97874.98
2019-04-14T14:31:33.358Z,97880.61
2019-04-14T14:34:02.068Z,97879.78
2019-04-14T14:36:30.776Z,97881.08
2019-04-14T14:38:59.475Z,97878.03
2019-04-14T14:41:28.222Z,97883.27
2019-04-14T14:43:56.928Z,97885.45
2019-04-14T14:46:43.650Z,97883.28
2019-04-14T14:49:13.924Z,97882.84
2019-04-14T14:51:46.992Z,97885.47
2019-04-14T14:54:22.574Z,97886.31
2019-04-14T14:56:51.283Z,97886.28
2019-04-14T14:59:20.042Z,97888.07
2019-04-14T15:01:48.750Z,97889.38
2019-04-14T15:04:18.987Z,97895.88
2019-04-14T15:06:48.095Z,97903.28
2019-04-14T15:09:16.804Z,97905.00
2019-04-14T15:11:45.567Z,97910.65
2019-04-14T15:14:14.273Z,97916.23
2019-04-14T15:16:42.980Z,97912.34
2019-04-14T15:21:49.332Z,97909.28
2019-04-14T15:24:22.112Z,97921.42
2019-04-14T15:26:50.829Z,97916.64
2019-04-14T15:29:19.536Z,97911.89
2019-04-14T15:31:48.255Z,97918.79
2019-04-14T15:34:16.966Z,97916.58
2019-04-14T15:36:45.720Z,97918.79
2019-04-14T15:39:14.430Z,97917.91
2019-04-14T15:41:43.133Z,97915.31
2019-04-14T15:46:46.491Z,97918.75
2019-04-14T15:49:20.831Z,97917.00
2019-04-14T15:51:49.539Z,97917.45
2019-04-14T15:54:18.250Z,97926.51
2019-04-14T15:56:57.427Z,97917.36
2019-04-14T15:59:36.556Z,97916.52
2019-04-14T16:02:19.115Z,97917.35
2019-04-14T16:04:49.394Z,97920.31
2019-04-14T16:07:25.783Z,97919.02
2019-04-14T16:10:02.034Z,97925.47
2019-04-14T16:12:38.330Z,97929.77
2019-04-14T16:15:09.431Z,97927.98
2019-04-14T16:17:39.707Z,97931.48
2019-04-14T16:20:10.001Z,97929.34
2019-04-14T16:22:39.101Z,97941.85
2019-04-14T16:25:07.956Z,97935.84
2019-04-14T16:27:44.256Z,97948.38
2019-04-14T16:30:31.026Z,97943.23
2019-04-14T16:33:13.360Z,97949.27
2019-04-14T16:35:42.536Z,97947.97
2019-04-14T16:38:11.244Z,97954.36
2019-04-14T16:40:39.954Z,97956.02
2019-04-14T16:43:08.678Z,97954.22
2019-04-14T16:45:37.395Z,97963.66
2019-04-14T16:48:06.178Z,97965.77
2019-04-14T16:50:34.892Z,97969.22
2019-04-14T16:53:23.326Z,97965.30
2019-04-14T16:56:18.444Z,97958.34
2019-04-14T16:58:51.489Z,97961.72
2019-04-14T17:01:24.644Z,97954.34
2019-04-14T17:03:53.360Z,97957.41
2019-04-14T17:06:22.111Z,97957.31
2019-04-14T17:08:50.821Z,97959.50
2019-04-14T17:11:19.550Z,97950.74
2019-04-14T17:13:52.922Z,97950.31
2019-04-14T17:16:23.213Z,97961.97
2019-04-14T17:19:02.602Z,97958.46
2019-04-14T17:21:35.844Z,97957.48
2019-04-14T17:24:16.743Z,97964.77
2019-04-14T17:26:46.991Z,97972.47
2019-04-14T17:29:29.333Z,97971.59
2019-04-14T17:31:59.607Z,97976.34
2019-04-14T17:34:35.897Z,97979.36
2019-04-14T17:37:21.127Z,97984.43
2019-04-14T17:40:00.629Z,97984.40
2019-04-14T17:42:36.862Z,97980.09
2019-04-14T17:45:18.149Z,97979.21
2019-04-14T17:47:54.471Z,97987.81
2019-04-14T17:50:43.170Z,97986.50
2019-04-14T17:53:16.203Z,97988.16
2019-04-14T17:56:05.404Z,98000.26
2019-04-14T17:58:38.416Z,98006.28
2019-04-14T18:01:24.899Z,98014.73
2019-04-14T18:04:00.933Z,98018.53
2019-04-14T18:06:33.995Z,98020.13
2019-04-14T18:09:04.297Z,98030.84
2019-04-14T18:11:37.308Z,98024.83
2019-04-14T18:14:07.590Z,98034.77
2019-04-14T18:16:47.094Z,98038.15
2019-04-14T18:19:29.460Z,98038.11
2019-04-14T18:21:58.168Z,98041.63
2019-04-14T18:24:26.917Z,98043.08
2019-04-14T18:26:55.638Z,98042.78
2019-04-14T18:29:37.688Z,98048.53
2019-04-14T18:32:13.796Z,98047.73
2019-04-14T18:34:59.184Z,98050.55
2019-04-14T18:37:29.541Z,98059.14
2019-04-14T18:40:05.643Z,98070.80
2019-04-14T18:42:39.011Z,98075.53
2019-04-14T18:45:10.527Z,98085.02
2019-04-14T18:47:49.866Z,98087.59
2019-04-14T18:50:36.334Z,98091.46
2019-04-14T18:53:22.919Z,98092.80
2019-04-14T18:56:02.129Z,98095.80
2019-04-14T18:58:35.666Z,98092.79
2019-04-14T19:01:08.667Z,98096.35
2019-04-14T19:03:37.487Z,98095.92
2019-04-14T19:06:06.239Z,98102.94
2019-04-14T19:08:34.949Z,98100.27
2019-04-14T19:11:17.150Z,98101.94
2019-04-14T19:13:50.418Z,98099.81
2019-04-14T19:16:20.698Z,98098.97
2019-04-14T19:19:00.032Z,98098.14
2019-04-14T19:21:30.300Z,98095.06
2019-04-14T19:23:59.035Z,98101.14
2019-04-14T19:26:27.792Z,98103.16
2019-04-14T19:28:56.496Z,98102.61
2019-04-14T19:31:25.233Z,98104.88
2019-04-14T19:33:53.991Z,98105.72
2019-04-14T19:36:22.698Z,98108.25
2019-04-14T19:38:51.400Z,98101.70
2019-04-14T19:41:20.154Z,98106.06
2019-04-14T19:43:49.259Z,98098.32
2019-04-14T19:46:17.962Z,98098.41
2019-04-14T19:48:46.709Z,98108.23
2019-04-14T19:51:15.417Z,98102.80
2019-04-14T19:53:44.128Z,98105.22
2019-04-14T19:56:12.870Z,98108.38
2019-04-14T19:58:41.579Z,98108.61
2019-04-14T20:01:10.292Z,98108.91
2019-04-14T20:03:39.083Z,98111.50
2019-04-14T20:06:07.784Z,98121.05
2019-04-14T20:08:36.544Z,98125.30
2019-04-14T20:11:05.361Z,98120.49
2019-04-14T20:13:35.737Z,98122.23
2019-04-14T20:16:12.041Z,98126.05
2019-04-14T20:18:45.048Z,98124.41
2019-04-14T20:21:27.632Z,98126.72
2019-04-14T20:23:57.906Z,98128.41
2019-04-14T20:26:43.531Z,98128.06
2019-04-14T20:29:13.826Z,98124.13
2019-04-14T20:31:47.141Z,98129.80
2019-04-14T20:34:15.846Z,98129.75
2019-04-14T20:36:44.555Z,98137.55
2019-04-14T20:39:14.499Z,98139.67
2019-04-14T20:41:43.302Z,98137.52
2019-04-14T20:44:12.312Z,98137.31
2019-04-14T20:46:41.025Z,98141.00
2019-04-14T20:49:09.830Z,98142.25
2019-04-14T20:51:38.576Z,98149.05
2019-04-14T20:54:07.287Z,98149.92
2019-04-14T20:56:35.987Z,98145.98
2019-04-14T20:59:05.297Z,98148.03
2019-04-14T21:01:35.566Z,98151.16
2019-04-14T21:04:06.048Z,98151.23
2019-04-14T21:06:45.289Z,98155.70
2019-04-14T21:09:15.570Z,98157.42
2019-04-14T21:11:51.548Z,98151.38
2019-04-14T21:14:31.093Z,98150.30
2019-04-14T21:17:16.663Z,98153.11
2019-04-14T21:19:46.991Z,98152.78
2019-04-14T21:22:33.844Z,98153.98
2019-04-14T21:25:09.952Z,98154.47
2019-04-14T21:27:40.297Z,98156.25
2019-04-14T21:30:13.912Z,98151.75
2019-04-14T21:32:50.126Z,98148.77
2019-04-14T21:35:36.636Z,98144.76
2019-04-14T21:38:06.919Z,98146.03
2019-04-14T21:40:46.268Z,98148.83
2019-04-14T21:43:14.979Z,98142.05
2019-04-14T21:45:43.705Z,98143.35
2019-04-14T21:48:12.449Z,98141.20
2019-04-14T21:50:41.238Z,98147.67
2019-04-14T21:53:09.967Z,98146.35
2019-04-14T21:55:38.676Z,98144.47
2019-04-14T21:58:17.966Z,98142.69
2019-04-14T22:01:05.779Z,98148.23
2019-04-14T22:03:36.052Z,98150.28
2019-04-14T22:06:24.737Z,98154.37
2019-04-14T22:08:54.744Z,98149.50
2019-04-14T22:11:24.946Z,98150.56
2019-04-14T22:13:53.737Z,98149.21
2019-04-14T22:16:22.444Z,98150.06
2019-04-14T22:18:51.304Z,98155.05
2019-04-14T22:21:20.011Z,98154.99
2019-04-14T22:24:00.513Z,98157.05
2019-04-14T22:26:25.901Z,98153.03
2019-04-14T22:28:49.592Z,98160.70
2019-04-14T22:31:18.343Z,98156.38
2019-04-14T22:33:47.043Z,98159.91
2019-04-14T22:36:15.753Z,98163.84
2019-04-14T22:38:44.458Z,98160.83
2019-04-14T22:41:13.159Z,98155.56
2019-04-14T22:43:41.897Z,98155.47
2019-04-14T22:46:10.598Z,98153.73
2019-04-14T22:48:39.610Z,98155.94
2019-04-14T22:51:08.493Z,98155.15
2019-04-14T22:53:37.192Z,98151.68
2019-04-14T22:56:05.957Z,98153.09
2019-04-14T22:58:34.658Z,98147.66
2019-04-14T23:01:11.194Z,98149.83
2019-04-14T23:03:50.233Z,98154.92
2019-04-14T23:06:36.962Z,98148.86
2019-04-14T23:09:23.345Z,98156.06
2019-04-14T23:11:56.845Z,98153.50
2019-04-14T23:14:30.100Z,98155.15
2019-04-14T23:17:12.429Z,98151.24
2019-04-14T23:19:42.692Z,98152.45
2019-04-14T23:22:18.825Z,98153.66
2019-04-14T23:24:49.095Z,98150.83
2019-04-14T23:27:17.805Z,98156.03
2019-04-14T23:29:46.609Z,98155.15
2019-04-14T23:32:15.329Z,98161.70
2019-04-14T23:34:44.060Z,98157.68
2019-04-14T23:37:12.806Z,98158.97
2019-04-14T23:39:41.521Z,98158.27
2019-04-14T23:42:10.214Z,98161.64
2019-04-14T23:44:39.049Z,98156.50
2019-04-14T23:47:07.747Z,98155.38
2019-04-14T23:49:36.455Z,98156.42
2019-04-14T23:52:05.232Z,98149.56
2019-04-14T23:54:33.940Z,98157.00
2019-04-14T23:57:05.895Z,98151.77
2019-04-14T23:59:33.111Z,98152.81
